createdAt,value
2022-10-02T00:00:04.168Z,9.278322
2022-10-02T00:01:04.125Z,9.278362
2022-10-02T00:02:04.260Z,9.278267
2022-10-02T00:03:04.086Z,9.278281
2022-10-02T00:04:04.118Z,9.278319
2022-10-02T00:05:04.077Z,9.278280
2022-10-02T00:06:04.060Z,9.278273
2022-10-02T00:07:04.019Z,9.278314
2022-10-02T00:08:04.002Z,9.278314
2022-10-02T00:09:04.002Z,9.278320
2022-10-02T00:10:04.006Z,9.278315
2022-10-02T00:11:03.959Z,9.278326
2022-10-02T00:12:03.932Z,9.278309
2022-10-02T00:13:03.924Z,9.278336
2022-10-02T00:14:03.895Z,9.278321
2022-10-02T00:15:03.913Z,9.278226
2022-10-02T00:16:03.950Z,9.278297
2022-10-02T00:17:03.865Z,9.278324
2022-10-02T00:18:03.856Z,9.278360
2022-10-02T00:19:04.126Z,9.278361
2022-10-02T00:20:03.835Z,9.278470
2022-10-02T00:21:03.787Z,9.278272
2022-10-02T00:22:03.779Z,9.278342
2022-10-02T00:23:03.751Z,9.278340
2022-10-02T00:24:03.759Z,9.278316
2022-10-02T00:25:03.748Z,9.278463
2022-10-02T00:26:03.704Z,9.278393
2022-10-02T00:27:03.684Z,9.278329
2022-10-02T00:28:03.748Z,9.278360
2022-10-02T00:29:03.681Z,9.278319
2022-10-02T00:30:03.670Z,9.278395
2022-10-02T00:31:03.631Z,9.278378
2022-10-02T00:32:03.673Z,9.278349
2022-10-02T00:33:03.622Z,9.278178
2022-10-02T00:34:03.575Z,9.278223
2022-10-02T00:35:03.606Z,9.278277
2022-10-02T00:36:03.530Z,9.278322
2022-10-02T00:37:03.519Z,9.278329
2022-10-02T00:38:03.501Z,9.278320
2022-10-02T00:39:03.498Z,9.278339
2022-10-02T00:40:03.541Z,9.278160
2022-10-02T00:41:03.457Z,9.278241
2022-10-02T00:42:03.433Z,9.278223
2022-10-02T00:43:03.418Z,9.278265
2022-10-02T00:44:03.392Z,9.278168
2022-10-02T00:45:03.402Z,9.278177
2022-10-02T00:46:03.388Z,9.278110
2022-10-02T00:47:03.357Z,9.278339
2022-10-02T00:48:03.329Z,9.278376
2022-10-02T00:49:03.302Z,9.278305
2022-10-02T00:50:04.432Z,9.278404
2022-10-02T00:51:03.294Z,9.278323
2022-10-02T00:52:03.273Z,9.278279
2022-10-02T00:53:03.248Z,9.278224
2022-10-02T00:54:03.233Z,9.278152
2022-10-02T00:55:03.239Z,9.278292
2022-10-02T00:56:03.206Z,9.278111
2022-10-02T00:57:03.178Z,9.278255
2022-10-02T00:58:03.175Z,9.278382
2022-10-02T00:59:03.137Z,9.278332
2022-10-02T01:00:03.154Z,9.278331
2022-10-02T01:01:03.152Z,9.278498
2022-10-02T01:02:03.211Z,9.278198
2022-10-02T01:03:03.080Z,9.278341
2022-10-02T01:04:03.109Z,9.278318
2022-10-02T01:05:03.075Z,9.278312
2022-10-02T01:06:03.032Z,9.278437
2022-10-02T01:07:03.034Z,9.278225
2022-10-02T01:08:02.989Z,9.278030
2022-10-02T01:09:02.976Z,9.277905
2022-10-02T01:10:02.982Z,9.277904
2022-10-02T01:11:03.200Z,9.277798
2022-10-02T01:12:02.924Z,9.278058
2022-10-02T01:13:03.584Z,9.278204
2022-10-02T01:14:02.878Z,9.278519
2022-10-02T01:15:02.919Z,9.278533
2022-10-02T01:16:02.870Z,9.278565
2022-10-02T01:17:02.827Z,9.278490
2022-10-02T01:18:02.821Z,9.278437
2022-10-02T01:19:02.815Z,9.278592
2022-10-02T01:20:02.853Z,9.278494
2022-10-02T01:21:02.765Z,9.278419
2022-10-02T01:22:02.749Z,9.278441
2022-10-02T01:23:02.739Z,9.278515
2022-10-02T01:24:02.725Z,9.278448
2022-10-02T01:25:02.739Z,9.278483
2022-10-02T01:26:02.694Z,9.278342
2022-10-02T01:27:02.659Z,9.278589
2022-10-02T01:28:02.692Z,9.278391
2022-10-02T01:29:02.623Z,9.278323
2022-10-02T01:30:02.638Z,9.278486
2022-10-02T01:31:02.595Z,9.278300
2022-10-02T01:32:02.629Z,9.278425
2022-10-02T01:33:02.607Z,9.278365
2022-10-02T01:34:02.541Z,9.278138
2022-10-02T01:35:02.617Z,9.278185
2022-10-02T01:36:02.507Z,9.278136
2022-10-02T01:37:02.485Z,9.278265
2022-10-02T01:38:02.484Z,9.278375
2022-10-02T01:39:02.465Z,9.278431
2022-10-02T01:40:02.483Z,9.278316
2022-10-02T01:41:02.430Z,9.278360
2022-10-02T01:42:02.402Z,9.278318
2022-10-02T01:43:02.464Z,9.278324
2022-10-02T01:44:02.377Z,9.278414
2022-10-02T01:45:02.404Z,9.278322
2022-10-02T01:46:02.448Z,9.278253
2022-10-02T01:47:02.321Z,9.278159
2022-10-02T01:48:02.302Z,9.278246
2022-10-02T01:49:02.340Z,9.278452
2022-10-02T01:50:02.298Z,9.278537
2022-10-02T01:51:02.249Z,9.278317
2022-10-02T01:52:02.226Z,9.278324
2022-10-02T01:53:02.229Z,9.278552
2022-10-02T01:54:02.213Z,9.278420
2022-10-02T01:55:02.231Z,9.278436
2022-10-02T01:56:02.176Z,9.278267
2022-10-02T01:57:02.200Z,9.278343
2022-10-02T01:58:02.137Z,9.278302
2022-10-02T01:59:02.131Z,9.278292
2022-10-02T02:00:02.145Z,9.278297
2022-10-02T02:01:02.101Z,9.278309
2022-10-02T02:02:03.113Z,9.278337
2022-10-02T02:03:02.115Z,9.278671
2022-10-02T02:04:02.039Z,9.278307
2022-10-02T02:05:02.045Z,9.278467
2022-10-02T02:06:02.000Z,9.278377
2022-10-02T02:07:02.001Z,9.278242
2022-10-02T02:08:01.975Z,9.278350
2022-10-02T02:09:02.255Z,9.278388
2022-10-02T02:10:02.962Z,9.278319
2022-10-02T02:11:01.921Z,9.278371
2022-10-02T02:12:01.894Z,9.278361
2022-10-02T02:13:01.928Z,9.278324
2022-10-02T02:14:01.858Z,9.278414
2022-10-02T02:15:01.891Z,9.278370
2022-10-02T02:16:01.877Z,9.278258
2022-10-02T02:17:01.814Z,9.278214
2022-10-02T02:18:01.803Z,9.278226
2022-10-02T02:19:01.782Z,9.278326
2022-10-02T02:20:01.796Z,9.278299
2022-10-02T02:21:01.749Z,9.278379
2022-10-02T02:22:01.730Z,9.278373
2022-10-02T02:23:01.714Z,9.278328
2022-10-02T02:24:01.755Z,9.278404
2022-10-02T02:25:01.688Z,9.278291
2022-10-02T02:26:01.715Z,9.278362
2022-10-02T02:27:01.651Z,9.278303
2022-10-02T02:28:01.703Z,9.278173
2022-10-02T02:29:01.633Z,9.278274
2022-10-02T02:30:01.634Z,9.278278
2022-10-02T02:31:01.595Z,9.278297
2022-10-02T02:32:01.666Z,9.278271
2022-10-02T02:33:01.587Z,9.278271
2022-10-02T02:34:01.541Z,9.278272
2022-10-02T02:35:01.552Z,9.278291
2022-10-02T02:36:01.494Z,9.278305
2022-10-02T02:37:01.482Z,9.278333
2022-10-02T02:38:01.449Z,9.278343
2022-10-02T02:39:01.446Z,9.278319
2022-10-02T02:40:01.457Z,9.278298
2022-10-02T02:41:01.424Z,9.278345
2022-10-02T02:42:01.394Z,9.278343
2022-10-02T02:43:01.409Z,9.278287
2022-10-02T02:44:01.386Z,9.278345
2022-10-02T02:45:01.379Z,9.278363
2022-10-02T02:46:33.965Z,9.278343
2022-10-02T02:47:01.331Z,9.278284
2022-10-02T02:48:01.308Z,9.278327
2022-10-02T02:49:01.284Z,9.278328
2022-10-02T02:50:01.298Z,9.278316
2022-10-02T02:51:01.240Z,9.278296
2022-10-02T02:52:01.267Z,9.278369
2022-10-02T02:53:01.250Z,9.278341
2022-10-02T02:54:01.208Z,9.278363
2022-10-02T02:55:01.239Z,9.278359
2022-10-02T02:56:01.165Z,9.278325
2022-10-02T02:57:01.159Z,9.278346
2022-10-02T02:58:01.158Z,9.278312
2022-10-02T02:59:01.122Z,9.278316
2022-10-02T03:00:01.156Z,9.278312
2022-10-02T03:01:01.127Z,9.278295
2022-10-02T03:02:01.104Z,9.278323
2022-10-02T03:03:01.127Z,9.278386
2022-10-02T03:04:01.023Z,9.278363
2022-10-02T03:05:01.052Z,9.278384
2022-10-02T03:06:01.007Z,9.278379
2022-10-02T03:07:00.986Z,9.278403
2022-10-02T03:08:00.967Z,9.278296
2022-10-02T03:09:00.952Z,9.278314
2022-10-02T03:10:00.988Z,9.278339
2022-10-02T03:11:00.908Z,9.278379
2022-10-02T03:12:00.907Z,9.278416
2022-10-02T03:13:00.889Z,9.278368
2022-10-02T03:14:00.908Z,9.278291
2022-10-02T03:15:00.887Z,9.278280
2022-10-02T03:16:00.874Z,9.278316
2022-10-02T03:17:00.813Z,9.278369
2022-10-02T03:18:00.793Z,9.278341
2022-10-02T03:19:00.791Z,9.278327
2022-10-02T03:20:00.759Z,9.278339
2022-10-02T03:21:00.777Z,9.278277
2022-10-02T03:22:00.738Z,9.278273
2022-10-02T03:23:00.730Z,9.278308
2022-10-02T03:24:01.693Z,9.278325
2022-10-02T03:25:00.883Z,9.278323
2022-10-02T03:26:00.706Z,9.278354
2022-10-02T03:27:00.654Z,9.278334
2022-10-02T03:28:00.660Z,9.278335
2022-10-02T03:29:00.681Z,9.278288
2022-10-02T03:30:00.586Z,9.278332
2022-10-02T03:31:00.604Z,9.278173
2022-10-02T03:32:00.587Z,9.278208
2022-10-02T03:33:00.660Z,9.278242
2022-10-02T03:34:00.541Z,9.278201
2022-10-02T03:35:00.545Z,9.278271
2022-10-02T03:36:00.505Z,9.278267
2022-10-02T03:37:00.473Z,9.278273
2022-10-02T03:38:00.471Z,9.278233
2022-10-02T03:39:23.790Z,9.278219
2022-10-02T03:40:02.471Z,9.278275
2022-10-02T03:41:00.414Z,9.278275
2022-10-02T03:42:00.416Z,9.278275
2022-10-02T03:43:00.446Z,9.278176
2022-10-02T03:44:00.371Z,9.278204
2022-10-02T03:45:00.337Z,9.278260
2022-10-02T03:46:00.397Z,9.278325
2022-10-02T03:47:00.322Z,9.278320
2022-10-02T03:48:00.294Z,9.278290
2022-10-02T03:49:00.279Z,9.278302
2022-10-02T03:50:00.265Z,9.278265
2022-10-02T03:51:00.264Z,9.278342
2022-10-02T03:52:00.207Z,9.278194
2022-10-02T03:53:00.229Z,9.278131
2022-10-02T03:54:00.184Z,9.278156
2022-10-02T03:55:00.180Z,9.278391
2022-10-02T03:56:00.189Z,9.278537
2022-10-02T03:57:00.134Z,9.278483
2022-10-02T03:58:00.135Z,9.278243
2022-10-02T03:59:00.111Z,9.278156
2022-10-02T04:00:00.113Z,9.278066
2022-10-02T04:01:00.095Z,9.278026
2022-10-02T04:02:00.152Z,9.278130
2022-10-02T04:03:00.061Z,9.278104
2022-10-02T04:04:00.047Z,9.277947
2022-10-02T04:04:59.993Z,9.277831
2022-10-02T04:06:00.007Z,9.278026
2022-10-02T04:06:59.976Z,9.278160
2022-10-02T04:07:59.977Z,9.278045
2022-10-02T04:08:59.954Z,9.277986
2022-10-02T04:09:59.917Z,9.277959
2022-10-02T04:10:59.942Z,9.278073
2022-10-02T04:11:59.877Z,9.278024
2022-10-02T04:12:59.944Z,9.278065
2022-10-02T04:13:59.847Z,9.278061
2022-10-02T04:14:59.819Z,9.277985
2022-10-02T04:15:59.927Z,9.277932
2022-10-02T04:16:59.814Z,9.278065
2022-10-02T04:17:59.775Z,9.278008
2022-10-02T04:18:59.777Z,9.278012
2022-10-02T04:19:59.803Z,9.278102
2022-10-02T04:20:59.761Z,9.278195
2022-10-02T04:21:59.704Z,9.278156
2022-10-02T04:23:00.737Z,9.278185
2022-10-02T04:23:59.701Z,9.278158
2022-10-02T04:24:59.652Z,9.278074
2022-10-02T04:25:59.683Z,9.278065
2022-10-02T04:26:59.667Z,9.278096
2022-10-02T04:27:59.693Z,9.278090
2022-10-02T04:28:59.601Z,9.278075
2022-10-02T04:29:59.580Z,9.278064
2022-10-02T04:30:59.666Z,9.278037
2022-10-02T04:31:59.574Z,9.278115
2022-10-02T04:32:59.559Z,9.278121
2022-10-02T04:33:59.511Z,9.278020
2022-10-02T04:34:59.485Z,9.278142
2022-10-02T04:35:59.492Z,9.278128
2022-10-02T04:36:59.477Z,9.278180
2022-10-02T04:37:59.440Z,9.278181
2022-10-02T04:38:59.419Z,9.278178
2022-10-02T04:39:59.403Z,9.278104
2022-10-02T04:40:59.417Z,9.278098
2022-10-02T04:41:59.432Z,9.278085
2022-10-02T04:42:59.360Z,9.278040
2022-10-02T04:43:59.338Z,9.277993
2022-10-02T04:44:59.330Z,9.278061
2022-10-02T04:45:59.397Z,9.278061
2022-10-02T04:46:59.271Z,9.278072
2022-10-02T04:47:59.255Z,9.278179
2022-10-02T04:48:59.256Z,9.278177
2022-10-02T04:49:59.220Z,9.278176
2022-10-02T04:50:59.269Z,9.278098
2022-10-02T04:51:59.187Z,9.278024
2022-10-02T04:52:59.199Z,9.278166
2022-10-02T04:53:59.148Z,9.278136
2022-10-02T04:55:00.152Z,9.278206
2022-10-02T04:55:59.161Z,9.278183
2022-10-02T04:56:59.120Z,9.278257
2022-10-02T04:57:59.089Z,9.278113
2022-10-02T04:58:59.076Z,9.278149
2022-10-02T04:59:59.069Z,9.278299
2022-10-02T05:00:59.124Z,9.278304
2022-10-02T05:01:59.096Z,9.278318
2022-10-02T05:02:59.085Z,9.278256
2022-10-02T05:04:03.248Z,9.278161
2022-10-02T05:05:00.962Z,9.278139
2022-10-02T05:05:58.986Z,9.278193
2022-10-02T05:06:58.938Z,9.278155
2022-10-02T05:07:58.933Z,9.278157
2022-10-02T05:08:58.915Z,9.278302
2022-10-02T05:09:58.905Z,9.278143
2022-10-02T05:10:58.899Z,9.278048
2022-10-02T05:11:58.869Z,9.278256
2022-10-02T05:12:58.864Z,9.278254
2022-10-02T05:13:58.826Z,9.278230
2022-10-02T05:14:58.830Z,9.278337
2022-10-02T05:15:58.920Z,9.278337
2022-10-02T05:16:58.787Z,9.278268
2022-10-02T05:17:58.769Z,9.278152
2022-10-02T05:18:58.751Z,9.278181
2022-10-02T05:19:58.731Z,9.278223
2022-10-02T05:20:58.745Z,9.278197
2022-10-02T05:21:58.691Z,9.278191
2022-10-02T05:22:58.742Z,9.278158
2022-10-02T05:23:58.665Z,9.278171
2022-10-02T05:24:58.643Z,9.278225
2022-10-02T05:25:58.759Z,9.278206
2022-10-02T05:26:58.607Z,9.278379
2022-10-02T05:27:58.729Z,9.278556
2022-10-02T05:28:58.574Z,9.278386
2022-10-02T05:29:58.566Z,9.278385
2022-10-02T05:30:58.604Z,9.278496
2022-10-02T05:31:58.531Z,9.278436
2022-10-02T05:32:58.508Z,9.278176
2022-10-02T05:33:58.501Z,9.278073
2022-10-02T05:34:58.472Z,9.278150
2022-10-02T05:35:58.513Z,9.277962
2022-10-02T05:36:58.592Z,9.278085
2022-10-02T05:37:58.458Z,9.278342
2022-10-02T05:38:58.417Z,9.278372
2022-10-02T05:39:58.391Z,9.278334
2022-10-02T05:40:58.408Z,9.278318
2022-10-02T05:41:58.375Z,9.278353
2022-10-02T05:42:59.069Z,9.278404
2022-10-02T05:43:58.330Z,9.278357
2022-10-02T05:44:58.314Z,9.278298
2022-10-02T05:45:58.331Z,9.278389
2022-10-02T05:46:58.350Z,9.278339
2022-10-02T05:47:58.346Z,9.278259
2022-10-02T05:48:58.267Z,9.278176
2022-10-02T05:49:58.268Z,9.278336
2022-10-02T05:50:58.249Z,9.278341
2022-10-02T05:51:58.214Z,9.278462
2022-10-02T05:52:58.313Z,9.278362
2022-10-02T05:53:58.172Z,9.278404
2022-10-02T05:54:58.147Z,9.278423
2022-10-02T05:55:58.152Z,9.278402
2022-10-02T05:56:58.103Z,9.278419
2022-10-02T05:57:58.092Z,9.278449
2022-10-02T05:58:58.120Z,9.278459
2022-10-02T05:59:58.064Z,9.278502
2022-10-02T06:00:58.179Z,9.278457
2022-10-02T06:01:58.140Z,9.278454
2022-10-02T06:02:58.092Z,9.278388
2022-10-02T06:03:57.988Z,9.278364
2022-10-02T06:04:58.966Z,9.278381
2022-10-02T06:05:58.002Z,9.278303
2022-10-02T06:06:57.946Z,9.278329
2022-10-02T06:07:57.926Z,9.278353
2022-10-02T06:08:57.909Z,9.278330
2022-10-02T06:09:57.888Z,9.278366
2022-10-02T06:10:57.898Z,9.278302
2022-10-02T06:11:57.849Z,9.278369
2022-10-02T06:12:57.851Z,9.278426
2022-10-02T06:13:57.826Z,9.278355
2022-10-02T06:14:57.812Z,9.278451
2022-10-02T06:15:57.921Z,9.278419
2022-10-02T06:16:57.772Z,9.278455
2022-10-02T06:17:58.751Z,9.278454
2022-10-02T06:18:57.735Z,9.278369
2022-10-02T06:20:02.357Z,9.278376
2022-10-02T06:20:59.741Z,9.278260
2022-10-02T06:21:57.680Z,9.278261
2022-10-02T06:22:57.679Z,9.278193
2022-10-02T06:23:57.663Z,9.278254
2022-10-02T06:24:57.635Z,9.278219
2022-10-02T06:25:57.643Z,9.278233
2022-10-02T06:26:57.594Z,9.278276
2022-10-02T06:27:57.637Z,9.278296
2022-10-02T06:28:57.572Z,9.278298
2022-10-02T06:29:57.552Z,9.278249
2022-10-02T06:30:57.554Z,9.278344
2022-10-02T06:31:57.621Z,9.278337
2022-10-02T06:32:57.525Z,9.278289
2022-10-02T06:33:57.474Z,9.278337
2022-10-02T06:34:57.478Z,9.278304
2022-10-02T06:35:57.487Z,9.278352
2022-10-02T06:36:57.421Z,9.278325
2022-10-02T06:37:57.412Z,9.278228
2022-10-02T06:38:57.412Z,9.278268
2022-10-02T06:39:57.386Z,9.278302
2022-10-02T06:40:57.397Z,9.278347
2022-10-02T06:41:57.344Z,9.278360
2022-10-02T06:42:57.332Z,9.278280
2022-10-02T06:43:57.304Z,9.278309
2022-10-02T06:44:57.308Z,9.278215
2022-10-02T06:45:57.364Z,9.278162
2022-10-02T06:46:57.255Z,9.278246
2022-10-02T06:47:57.229Z,9.278295
2022-10-02T06:48:57.220Z,9.278316
2022-10-02T06:49:57.200Z,9.278337
2022-10-02T06:50:58.215Z,9.278312
2022-10-02T06:51:57.180Z,9.278146
2022-10-02T06:52:57.158Z,9.278236
2022-10-02T06:53:57.178Z,9.278395
2022-10-02T06:54:57.123Z,9.278445
2022-10-02T06:55:57.137Z,9.278334
2022-10-02T06:56:57.077Z,9.278321
2022-10-02T06:57:57.071Z,9.278272
2022-10-02T06:58:57.049Z,9.278328
2022-10-02T06:59:57.035Z,9.278296
2022-10-02T07:00:57.131Z,9.278287
2022-10-02T07:01:57.488Z,9.278275
2022-10-02T07:02:58.057Z,9.278328
2022-10-02T07:03:56.965Z,9.278300
2022-10-02T07:04:56.993Z,9.278234
2022-10-02T07:05:56.949Z,9.278284
2022-10-02T07:06:56.899Z,9.278325
2022-10-02T07:07:56.894Z,9.278338
2022-10-02T07:08:56.874Z,9.278314
2022-10-02T07:09:56.880Z,9.278298
2022-10-02T07:10:56.868Z,9.278223
2022-10-02T07:11:56.850Z,9.278296
2022-10-02T07:12:56.802Z,9.278233
2022-10-02T07:13:56.794Z,9.278274
2022-10-02T07:14:56.795Z,9.278298
2022-10-02T07:15:56.860Z,9.278289
2022-10-02T07:16:56.725Z,9.278308
2022-10-02T07:17:56.704Z,9.278301
2022-10-02T07:18:56.720Z,9.278478
2022-10-02T07:19:56.692Z,9.278461
2022-10-02T07:20:56.681Z,9.278343
2022-10-02T07:21:56.688Z,9.278726
2022-10-02T07:22:58.083Z,9.278356
2022-10-02T07:24:01.407Z,9.278220
2022-10-02T07:24:58.610Z,9.278442
2022-10-02T07:25:56.617Z,9.278253
2022-10-02T07:26:56.633Z,9.278343
2022-10-02T07:27:56.684Z,9.278257
2022-10-02T07:28:56.524Z,9.278515
2022-10-02T07:29:56.550Z,9.278249
2022-10-02T07:30:56.487Z,9.278260
2022-10-02T07:31:56.576Z,9.278369
2022-10-02T07:32:56.560Z,9.278395
2022-10-02T07:33:56.434Z,9.278510
2022-10-02T07:34:56.436Z,9.278436
2022-10-02T07:35:56.426Z,9.278385
2022-10-02T07:36:56.419Z,9.278412
2022-10-02T07:37:57.425Z,9.278436
2022-10-02T07:38:56.355Z,9.278476
2022-10-02T07:39:56.348Z,9.278473
2022-10-02T07:40:59.919Z,9.278412
2022-10-02T07:41:57.346Z,9.278260
2022-10-02T07:42:56.331Z,9.278270
2022-10-02T07:43:56.281Z,9.278320
2022-10-02T07:44:56.271Z,9.278261
2022-10-02T07:45:56.307Z,9.278426
2022-10-02T07:46:56.259Z,9.278512
2022-10-02T07:47:56.201Z,9.278515
2022-10-02T07:48:56.203Z,9.278439
2022-10-02T07:49:56.174Z,9.278462
2022-10-02T07:50:56.162Z,9.278283
2022-10-02T07:51:56.174Z,9.278273
2022-10-02T07:52:56.149Z,9.278314
2022-10-02T07:53:56.107Z,9.278191
2022-10-02T07:54:56.097Z,9.278214
2022-10-02T07:55:56.063Z,9.278194
2022-10-02T07:56:56.070Z,9.278287
2022-10-02T07:57:56.034Z,9.277984
2022-10-02T07:58:56.027Z,9.278128
2022-10-02T07:59:55.995Z,9.278173
2022-10-02T08:00:55.983Z,9.278083
2022-10-02T08:01:56.085Z,9.278140
2022-10-02T08:02:56.103Z,9.278130
2022-10-02T08:03:55.942Z,9.278226
2022-10-02T08:04:55.916Z,9.278257
2022-10-02T08:05:56.902Z,9.278234
2022-10-02T08:06:55.934Z,9.278190
2022-10-02T08:07:55.871Z,9.278091
2022-10-02T08:08:55.851Z,9.278170
2022-10-02T08:09:55.843Z,9.278063
2022-10-02T08:10:55.911Z,9.278250
2022-10-02T08:11:55.844Z,9.278105
2022-10-02T08:12:55.827Z,9.277888
2022-10-02T08:13:55.765Z,9.278012
2022-10-02T08:14:55.758Z,9.278065
2022-10-02T08:15:55.822Z,9.278068
2022-10-02T08:16:55.794Z,9.278339
2022-10-02T08:17:58.714Z,9.278294
2022-10-02T08:18:56.699Z,9.278400
2022-10-02T08:19:55.674Z,9.278379
2022-10-02T08:20:55.662Z,9.278355
2022-10-02T08:21:55.729Z,9.278404
2022-10-02T08:22:56.617Z,9.278287
2022-10-02T08:23:55.603Z,9.278309
2022-10-02T08:24:55.587Z,9.278311
2022-10-02T08:25:55.596Z,9.278345
2022-10-02T08:26:55.566Z,9.278328
2022-10-02T08:27:55.546Z,9.278390
2022-10-02T08:28:55.505Z,9.278375
2022-10-02T08:29:55.510Z,9.278279
2022-10-02T08:30:55.468Z,9.278310
2022-10-02T08:31:55.528Z,9.278244
2022-10-02T08:32:55.431Z,9.278322
2022-10-02T08:33:55.428Z,9.278308
2022-10-02T08:34:55.409Z,9.278275
2022-10-02T08:35:55.391Z,9.278337
2022-10-02T08:36:55.421Z,9.278359
2022-10-02T08:37:55.361Z,9.278329
2022-10-02T08:38:55.344Z,9.278400
2022-10-02T08:39:55.320Z,9.278299
2022-10-02T08:40:55.280Z,9.278296
2022-10-02T08:41:55.308Z,9.278351
2022-10-02T08:42:55.312Z,9.278465
2022-10-02T08:43:55.272Z,9.278350
2022-10-02T08:44:55.234Z,9.278227
2022-10-02T08:45:55.418Z,9.278178
2022-10-02T08:46:55.233Z,9.278135
2022-10-02T08:47:55.181Z,9.278116
2022-10-02T08:48:55.171Z,9.278266
2022-10-02T08:49:55.163Z,9.278195
2022-10-02T08:50:55.140Z,9.278244
2022-10-02T08:51:55.158Z,9.278275
2022-10-02T08:52:55.119Z,9.278259
2022-10-02T08:53:55.092Z,9.278296
2022-10-02T08:54:55.164Z,9.278306
2022-10-02T08:55:55.044Z,9.278300
2022-10-02T08:56:55.070Z,9.278273
2022-10-02T08:57:54.999Z,9.278315
2022-10-02T08:58:54.995Z,9.278280
2022-10-02T08:59:54.991Z,9.278335
2022-10-02T09:00:54.987Z,9.278336
2022-10-02T09:01:59.542Z,9.278348
2022-10-02T09:02:56.958Z,9.278296
2022-10-02T09:03:54.898Z,9.278349
2022-10-02T09:04:54.882Z,9.278294
2022-10-02T09:05:54.867Z,9.278299
2022-10-02T09:06:54.908Z,9.278299
2022-10-02T09:07:54.830Z,9.278293
2022-10-02T09:08:54.801Z,9.278295
2022-10-02T09:09:54.793Z,9.278414
2022-10-02T09:10:54.776Z,9.278406
2022-10-02T09:11:54.781Z,9.278214
2022-10-02T09:12:54.828Z,9.278248
2022-10-02T09:13:54.730Z,9.278314
2022-10-02T09:14:58.755Z,9.278333
2022-10-02T09:15:55.708Z,9.278311
2022-10-02T09:16:54.776Z,9.278339
2022-10-02T09:17:54.666Z,9.278172
2022-10-02T09:18:54.660Z,9.278259
2022-10-02T09:19:54.646Z,9.278242
2022-10-02T09:20:54.605Z,9.278147
2022-10-02T09:21:54.612Z,9.278254
2022-10-02T09:22:55.573Z,9.278318
2022-10-02T09:23:54.568Z,9.278347
2022-10-02T09:24:54.559Z,9.278318
2022-10-02T09:25:54.521Z,9.278318
2022-10-02T09:26:54.540Z,9.278206
2022-10-02T09:27:54.534Z,9.278223
2022-10-02T09:28:54.479Z,9.278253
2022-10-02T09:29:54.446Z,9.278293
2022-10-02T09:30:54.449Z,9.278317
2022-10-02T09:31:54.503Z,9.278308
2022-10-02T09:32:54.427Z,9.278307
2022-10-02T09:33:54.381Z,9.278310
2022-10-02T09:34:54.372Z,9.278355
2022-10-02T09:35:54.380Z,9.278343
2022-10-02T09:36:54.380Z,9.278332
2022-10-02T09:37:54.350Z,9.278283
2022-10-02T09:38:54.366Z,9.278283
2022-10-02T09:39:54.276Z,9.278270
2022-10-02T09:40:54.263Z,9.278310
2022-10-02T09:41:54.276Z,9.278193
2022-10-02T09:42:54.288Z,9.278190
2022-10-02T09:43:54.199Z,9.278205
2022-10-02T09:44:56.410Z,9.278281
2022-10-02T09:45:55.188Z,9.278297
2022-10-02T09:46:54.202Z,9.278336
2022-10-02T09:47:54.130Z,9.278310
2022-10-02T09:48:54.128Z,9.278255
2022-10-02T09:49:54.174Z,9.278145
2022-10-02T09:50:54.086Z,9.278156
2022-10-02T09:51:54.104Z,9.278017
2022-10-02T09:52:54.238Z,9.278007
2022-10-02T09:53:54.040Z,9.278175
2022-10-02T09:54:54.027Z,9.278205
2022-10-02T09:55:54.017Z,9.278298
2022-10-02T09:56:54.018Z,9.278323
2022-10-02T09:57:53.969Z,9.278358
2022-10-02T09:58:53.951Z,9.278184
2022-10-02T09:59:53.940Z,9.278218
2022-10-02T10:00:54.029Z,9.278397
2022-10-02T10:01:54.017Z,9.278338
2022-10-02T10:02:54.004Z,9.278322
2022-10-02T10:03:53.860Z,9.278592
2022-10-02T10:05:05.503Z,9.278575
2022-10-02T10:05:55.865Z,9.278416
2022-10-02T10:06:53.881Z,9.278484
2022-10-02T10:07:53.836Z,9.278335
2022-10-02T10:08:53.798Z,9.278388
2022-10-02T10:09:53.795Z,9.278407
2022-10-02T10:10:53.752Z,9.278271
2022-10-02T10:11:53.776Z,9.278261
2022-10-02T10:12:53.835Z,9.278317
2022-10-02T10:13:53.691Z,9.278337
2022-10-02T10:14:53.685Z,9.278395
2022-10-02T10:15:53.736Z,9.278522
2022-10-02T10:16:53.667Z,9.278240
2022-10-02T10:17:53.674Z,9.278469
2022-10-02T10:18:53.604Z,9.278559
2022-10-02T10:19:54.588Z,9.278508
2022-10-02T10:20:53.609Z,9.278541
2022-10-02T10:21:53.583Z,9.278505
2022-10-02T10:22:53.727Z,9.278487
2022-10-02T10:23:53.533Z,9.278436
2022-10-02T10:24:53.512Z,9.278613
2022-10-02T10:25:53.494Z,9.278711
2022-10-02T10:26:53.473Z,9.278504
2022-10-02T10:27:53.528Z,9.278469
2022-10-02T10:28:53.435Z,9.278320
2022-10-02T10:29:53.426Z,9.278333
2022-10-02T10:30:53.405Z,9.278248
2022-10-02T10:31:53.432Z,9.278308
2022-10-02T10:32:54.537Z,9.278337
2022-10-02T10:33:53.412Z,9.278380
2022-10-02T10:34:53.331Z,9.278372
2022-10-02T10:35:53.325Z,9.278419
2022-10-02T10:36:53.326Z,9.278339
2022-10-02T10:37:53.325Z,9.278317
2022-10-02T10:38:53.285Z,9.278316
2022-10-02T10:39:53.274Z,9.278214
2022-10-02T10:40:53.257Z,9.278295
2022-10-02T10:41:53.236Z,9.278303
2022-10-02T10:43:07.456Z,9.278254
2022-10-02T10:43:55.206Z,9.278315
2022-10-02T10:44:53.219Z,9.278290
2022-10-02T10:45:53.203Z,9.278299
2022-10-02T10:46:53.143Z,9.278306
2022-10-02T10:47:53.148Z,9.278268
2022-10-02T10:48:53.112Z,9.278274
2022-10-02T10:49:53.065Z,9.278270
2022-10-02T10:50:53.157Z,9.278357
2022-10-02T10:51:53.067Z,9.278267
2022-10-02T10:52:53.228Z,9.278254
2022-10-02T10:53:53.021Z,9.278328
2022-10-02T10:54:52.990Z,9.278370
2022-10-02T10:55:53.013Z,9.278418
2022-10-02T10:56:52.980Z,9.278394
2022-10-02T10:57:52.972Z,9.278316
2022-10-02T10:58:52.920Z,9.278376
2022-10-02T10:59:52.911Z,9.278436
2022-10-02T11:00:52.966Z,9.278340
2022-10-02T11:01:52.921Z,9.278374
2022-10-02T11:02:52.892Z,9.278505
2022-10-02T11:03:52.854Z,9.278365
2022-10-02T11:04:52.846Z,9.278303
2022-10-02T11:05:52.799Z,9.278328
2022-10-02T11:06:52.915Z,9.278317
2022-10-02T11:07:52.820Z,9.278246
2022-10-02T11:08:52.746Z,9.278157
2022-10-02T11:09:52.738Z,9.278156
2022-10-02T11:10:52.730Z,9.278256
2022-10-02T11:11:52.749Z,9.278313
2022-10-02T11:12:52.752Z,9.278302
2022-10-02T11:13:52.658Z,9.278334
2022-10-02T11:14:52.701Z,9.278270
2022-10-02T11:15:52.630Z,9.278344
2022-10-02T11:16:52.679Z,9.278317
2022-10-02T11:17:52.666Z,9.278385
2022-10-02T11:18:52.595Z,9.278461
2022-10-02T11:19:52.566Z,9.278444
2022-10-02T11:20:52.551Z,9.278362
2022-10-02T11:21:52.527Z,9.278323
2022-10-02T11:22:52.557Z,9.278307
2022-10-02T11:23:52.509Z,9.278290
2022-10-02T11:24:52.483Z,9.278260
2022-10-02T11:25:52.471Z,9.278152
2022-10-02T11:26:52.453Z,9.278191
2022-10-02T11:27:52.472Z,9.278170
2022-10-02T11:28:52.452Z,9.278186
2022-10-02T11:29:52.370Z,9.278123
2022-10-02T11:30:52.410Z,9.277957
2022-10-02T11:31:52.456Z,9.277902
2022-10-02T11:32:53.011Z,9.278107
2022-10-02T11:33:52.325Z,9.278185
2022-10-02T11:34:52.298Z,9.278247
2022-10-02T11:35:52.318Z,9.278210
2022-10-02T11:36:52.261Z,9.278188
2022-10-02T11:37:52.275Z,9.278181
2022-10-02T11:38:52.228Z,9.278182
2022-10-02T11:39:52.268Z,9.278220
2022-10-02T11:40:52.189Z,9.278206
2022-10-02T11:41:52.175Z,9.278252
2022-10-02T11:42:52.207Z,9.278250
2022-10-02T11:43:52.141Z,9.278250